National Weather Service Raw Text Product

Displaying AFOS PIL: TAFFOD Received: 2018-04-17 05:35 UTC


993 
FTUS43 KDMX 170535
TAFFOD
TAF
KFOD 170535Z 1706/1806 VRB04KT P6SM FEW250
      TEMPO 1709/1713 5SM BR
     FM171500 08007KT P6SM FEW200
     FM180300 08012KT P6SM BKN045=